createdAt,value
2017-12-29T00:02:11.959Z,5.13
2017-12-29T00:04:38.854Z,4.33
2017-12-29T00:07:05.692Z,4.40
2017-12-29T00:09:32.533Z,4.80
2017-12-29T00:11:59.391Z,3.67
2017-12-29T00:14:26.275Z,4.53
2017-12-29T00:16:53.226Z,3.80
2017-12-29T00:19:20.170Z,4.13
2017-12-29T00:21:46.996Z,3.77
2017-12-29T00:24:13.968Z,3.87
2017-12-29T00:26:40.794Z,4.30
2017-12-29T00:29:07.632Z,4.20
2017-12-29T00:31:34.466Z,4.00
2017-12-29T00:34:01.741Z,4.30
2017-12-29T00:36:28.568Z,5.00
2017-12-29T00:38:55.440Z,3.83
2017-12-29T00:41:22.269Z,3.87
2017-12-29T00:43:49.226Z,3.53
2017-12-29T00:46:16.059Z,3.63
2017-12-29T00:48:42.913Z,4.63
2017-12-29T00:51:09.755Z,4.93
2017-12-29T00:53:36.573Z,3.57
2017-12-29T00:56:03.867Z,4.60
2017-12-29T00:58:30.798Z,4.10
2017-12-29T01:00:57.638Z,4.47
2017-12-29T01:03:24.503Z,4.73
2017-12-29T01:05:51.442Z,3.90
2017-12-29T01:08:18.322Z,4.87
2017-12-29T01:10:45.159Z,3.87
2017-12-29T01:13:12.103Z,4.40
2017-12-29T01:15:38.909Z,4.03
2017-12-29T01:18:05.862Z,3.77
2017-12-29T01:20:32.694Z,3.83
2017-12-29T01:22:59.553Z,3.83
2017-12-29T01:25:26.605Z,5.37
2017-12-29T01:27:53.541Z,4.33
2017-12-29T01:30:20.393Z,5.20
2017-12-29T01:32:47.251Z,4.67
2017-12-29T01:35:14.185Z,4.73
2017-12-29T01:37:41.029Z,4.70
2017-12-29T01:40:07.969Z,4.50
2017-12-29T01:42:34.822Z,5.00
2017-12-29T01:45:01.666Z,5.10
2017-12-29T01:47:28.509Z,5.27
2017-12-29T01:49:55.456Z,4.83
2017-12-29T01:52:22.404Z,4.33
2017-12-29T01:54:49.229Z,5.37
2017-12-29T01:57:16.182Z,6.07
2017-12-29T01:59:43.041Z,4.80
2017-12-29T02:02:09.864Z,5.83
2017-12-29T02:04:36.721Z,4.97
2017-12-29T02:07:03.562Z,4.77
2017-12-29T02:09:30.402Z,4.90
2017-12-29T02:11:57.258Z,4.80
2017-12-29T02:14:24.091Z,4.87
2017-12-29T02:16:50.951Z,4.80
2017-12-29T02:19:17.879Z,4.60
2017-12-29T02:21:44.709Z,4.50
2017-12-29T02:24:11.579Z,4.37
2017-12-29T02:26:38.420Z,4.83
2017-12-29T02:29:05.368Z,4.37
2017-12-29T02:31:32.214Z,4.77
2017-12-29T02:33:59.158Z,5.00
2017-12-29T02:36:25.987Z,4.73
2017-12-29T02:38:52.843Z,4.43
2017-12-29T02:41:19.690Z,4.63
2017-12-29T02:43:46.534Z,4.50
2017-12-29T02:46:13.352Z,4.80
2017-12-29T02:48:40.218Z,4.73
2017-12-29T02:51:07.063Z,4.73
2017-12-29T02:53:33.909Z,5.00
2017-12-29T02:56:00.733Z,4.20
2017-12-29T02:58:27.607Z,4.80
2017-12-29T03:00:54.534Z,4.83
2017-12-29T03:03:21.485Z,5.03
2017-12-29T03:05:48.430Z,4.73
2017-12-29T03:08:15.377Z,4.90
2017-12-29T03:10:42.326Z,5.00
2017-12-29T03:13:09.150Z,5.00
2017-12-29T03:15:35.993Z,5.83
2017-12-29T03:18:03.261Z,4.80
2017-12-29T03:20:30.110Z,5.07
2017-12-29T03:22:56.962Z,4.63
2017-12-29T03:25:23.902Z,4.90
2017-12-29T03:27:50.750Z,5.20
2017-12-29T03:30:17.696Z,5.13
2017-12-29T03:32:44.541Z,4.73
2017-12-29T03:35:11.370Z,4.70
2017-12-29T03:37:38.193Z,5.50
2017-12-29T03:40:05.526Z,5.20
2017-12-29T03:42:32.358Z,5.47
2017-12-29T03:44:59.274Z,4.73
2017-12-29T03:47:26.110Z,6.60
2017-12-29T03:49:53.152Z,5.30
2017-12-29T03:52:20.003Z,4.80
2017-12-29T03:54:46.846Z,5.20
2017-12-29T03:57:13.694Z,5.80
2017-12-29T03:59:40.541Z,5.33
2017-12-29T04:02:07.382Z,4.80
2017-12-29T04:04:34.323Z,5.33
2017-12-29T04:07:01.275Z,5.87
2017-12-29T04:09:28.105Z,5.70
2017-12-29T04:11:55.058Z,5.53
2017-12-29T04:14:22.009Z,5.00
2017-12-29T04:16:48.838Z,5.30
2017-12-29T04:19:15.687Z,5.93
2017-12-29T04:21:42.543Z,4.90
2017-12-29T04:24:09.486Z,4.83
2017-12-29T04:26:36.329Z,5.00
2017-12-29T04:29:03.153Z,5.20
2017-12-29T04:31:30.003Z,5.47
2017-12-29T04:33:56.866Z,5.97
2017-12-29T04:36:23.806Z,5.37
2017-12-29T04:38:50.658Z,5.53
2017-12-29T04:41:17.504Z,6.30
2017-12-29T04:43:44.358Z,5.17
2017-12-29T04:46:11.290Z,9.17
2017-12-29T04:48:38.125Z,5.53
2017-12-29T04:51:04.974Z,5.50
2017-12-29T04:53:31.868Z,5.17
2017-12-29T04:55:58.690Z,5.10
2017-12-29T04:58:25.522Z,5.23
2017-12-29T05:00:52.383Z,6.10
2017-12-29T05:03:19.209Z,5.13
2017-12-29T05:05:46.042Z,6.10
2017-12-29T05:08:12.986Z,4.97
2017-12-29T05:10:39.829Z,5.37
2017-12-29T05:13:06.689Z,5.70
2017-12-29T05:15:33.521Z,5.80
2017-12-29T05:18:00.462Z,4.70
2017-12-29T05:20:27.286Z,5.03
2017-12-29T05:22:54.564Z,5.03
2017-12-29T05:25:21.411Z,6.10
2017-12-29T05:27:48.345Z,6.17
2017-12-29T05:30:15.196Z,5.30
2017-12-29T05:32:42.063Z,6.73
2017-12-29T05:35:08.892Z,5.50
2017-12-29T05:37:35.839Z,5.40
2017-12-29T05:40:02.696Z,5.63
2017-12-29T05:42:29.525Z,5.10
2017-12-29T05:44:56.359Z,4.93
2017-12-29T05:47:23.310Z,11.77
2017-12-29T05:49:50.158Z,7.70
2017-12-29T05:52:17.011Z,5.43
2017-12-29T05:54:43.947Z,6.00
2017-12-29T05:57:10.788Z,6.30
2017-12-29T05:59:37.645Z,6.50
2017-12-29T06:02:04.495Z,5.70
2017-12-29T06:04:31.437Z,6.10
2017-12-29T06:06:58.274Z,6.03
2017-12-29T06:09:25.117Z,4.53
2017-12-29T06:11:51.954Z,5.83
2017-12-29T06:14:18.823Z,5.40
2017-12-29T06:16:45.755Z,5.13
2017-12-29T06:19:12.588Z,5.60
2017-12-29T06:21:39.542Z,4.97
2017-12-29T06:24:06.484Z,5.07
2017-12-29T06:26:33.322Z,4.60
2017-12-29T06:29:00.170Z,5.13
2017-12-29T06:31:27.009Z,5.97
2017-12-29T06:33:53.962Z,4.80
2017-12-29T06:36:20.794Z,5.20
2017-12-29T06:38:47.660Z,6.70
2017-12-29T06:41:14.479Z,5.63
2017-12-29T06:43:41.315Z,4.90
2017-12-29T06:46:08.184Z,5.20
2017-12-29T06:48:35.030Z,5.47
2017-12-29T06:51:01.896Z,5.33
2017-12-29T06:53:28.811Z,5.43
2017-12-29T06:55:55.645Z,4.97
2017-12-29T06:58:22.502Z,6.00
2017-12-29T07:00:49.321Z,5.60
2017-12-29T07:03:16.195Z,6.40
2017-12-29T07:05:43.042Z,5.67
2017-12-29T07:08:09.921Z,5.63
2017-12-29T07:10:36.832Z,5.53
2017-12-29T07:13:03.659Z,6.20
2017-12-29T07:15:30.495Z,5.67
2017-12-29T07:17:57.330Z,5.53
2017-12-29T07:20:24.615Z,5.87
2017-12-29T07:22:51.559Z,6.77
2017-12-29T07:25:18.511Z,6.30
2017-12-29T07:27:45.338Z,6.13
2017-12-29T07:30:12.307Z,5.80
2017-12-29T07:32:39.352Z,6.53
2017-12-29T07:35:06.185Z,6.50
2017-12-29T07:37:33.146Z,6.10
2017-12-29T07:39:59.969Z,6.30
2017-12-29T07:42:26.935Z,6.63
2017-12-29T07:44:53.777Z,6.93
2017-12-29T07:47:25.678Z,5.93
2017-12-29T07:49:52.513Z,6.50
2017-12-29T07:52:19.349Z,6.40
2017-12-29T07:54:46.199Z,5.90
2017-12-29T07:57:13.133Z,6.50
2017-12-29T07:59:39.994Z,6.00
2017-12-29T08:02:06.843Z,6.03
2017-12-29T08:04:33.746Z,6.00
2017-12-29T08:07:00.637Z,7.17
2017-12-29T08:09:27.431Z,6.50
2017-12-29T08:11:54.283Z,5.93
2017-12-29T08:14:21.130Z,6.13
2017-12-29T08:16:47.993Z,6.30
2017-12-29T08:19:14.827Z,6.80
2017-12-29T08:21:41.785Z,7.50
2017-12-29T08:24:08.613Z,7.23
2017-12-29T08:26:35.486Z,6.83
2017-12-29T08:29:02.330Z,7.03
2017-12-29T08:31:29.167Z,7.07
2017-12-29T08:33:56.021Z,7.03
2017-12-29T08:36:22.857Z,6.83
2017-12-29T08:38:49.710Z,6.60
2017-12-29T08:41:16.618Z,7.17
2017-12-29T08:43:43.470Z,6.80
2017-12-29T08:46:10.415Z,7.10
2017-12-29T08:48:37.357Z,6.23
2017-12-29T08:51:04.306Z,7.63
2017-12-29T08:53:31.141Z,8.10
2017-12-29T08:55:58.092Z,7.03
2017-12-29T08:58:24.927Z,7.23
2017-12-29T09:00:51.765Z,6.63
2017-12-29T09:03:18.618Z,5.67
2017-12-29T09:05:45.476Z,5.93
2017-12-29T09:08:12.313Z,6.93
2017-12-29T09:10:39.183Z,5.30
2017-12-29T09:13:06.105Z,6.63
2017-12-29T09:15:33.047Z,6.00
2017-12-29T09:17:59.992Z,6.80
2017-12-29T09:20:26.940Z,6.10
2017-12-29T09:22:53.878Z,5.80
2017-12-29T09:25:20.838Z,5.50
2017-12-29T09:27:47.643Z,5.53
2017-12-29T09:30:14.883Z,5.80
2017-12-29T09:32:42.118Z,5.10
2017-12-29T09:35:08.976Z,4.90
2017-12-29T09:37:36.269Z,3.97
2017-12-29T09:40:03.119Z,4.23
2017-12-29T09:42:29.968Z,4.40
2017-12-29T09:44:56.810Z,5.53
2017-12-29T09:47:23.654Z,4.63
2017-12-29T09:49:50.486Z,3.87
2017-12-29T09:52:17.357Z,3.67
2017-12-29T09:54:44.168Z,3.73
2017-12-29T09:57:11.038Z,4.10
2017-12-29T09:59:37.878Z,3.80
2017-12-29T10:02:04.726Z,4.20
2017-12-29T10:04:31.561Z,4.10
2017-12-29T10:06:58.422Z,4.47
2017-12-29T10:09:25.347Z,4.17
2017-12-29T10:11:52.303Z,3.77
2017-12-29T10:14:19.126Z,3.10
2017-12-29T10:16:45.956Z,3.17
2017-12-29T10:19:12.813Z,3.17
2017-12-29T10:21:39.683Z,3.80
2017-12-29T10:24:06.626Z,4.83
2017-12-29T10:26:34.337Z,4.50
2017-12-29T10:29:01.226Z,4.90
2017-12-29T10:31:28.062Z,4.57
2017-12-29T10:33:54.917Z,3.97
2017-12-29T10:36:21.859Z,4.07
2017-12-29T10:38:48.717Z,3.10
2017-12-29T10:41:15.659Z,3.77
2017-12-29T10:43:42.494Z,3.90
2017-12-29T10:46:09.346Z,4.60
2017-12-29T10:48:36.194Z,3.30
2017-12-29T10:51:03.039Z,3.87
2017-12-29T10:53:29.983Z,3.90
2017-12-29T10:55:56.922Z,4.67
2017-12-29T10:58:23.763Z,4.67
2017-12-29T11:00:50.715Z,4.20
2017-12-29T11:03:17.659Z,5.07
2017-12-29T11:05:44.490Z,5.10
2017-12-29T11:08:11.357Z,4.87
2017-12-29T11:10:38.295Z,3.97
2017-12-29T11:13:05.139Z,4.00
2017-12-29T11:15:31.991Z,4.37
2017-12-29T11:17:58.822Z,3.93
2017-12-29T11:20:25.682Z,3.83
2017-12-29T11:22:52.509Z,3.50
2017-12-29T11:25:19.386Z,4.03
2017-12-29T11:27:46.202Z,4.00
2017-12-29T11:30:13.053Z,4.10
2017-12-29T11:32:39.985Z,3.20
2017-12-29T11:35:06.827Z,4.10
2017-12-29T11:37:33.648Z,3.60
2017-12-29T11:40:00.932Z,4.50
2017-12-29T11:42:27.787Z,4.47
2017-12-29T11:44:54.830Z,4.90
2017-12-29T11:47:21.666Z,4.40
2017-12-29T11:49:48.523Z,4.47
2017-12-29T11:52:15.462Z,3.80
2017-12-29T11:54:42.326Z,4.80
2017-12-29T11:57:09.392Z,3.90
2017-12-29T11:59:36.215Z,5.97
2017-12-29T12:02:03.082Z,5.30
2017-12-29T12:04:30.020Z,4.90
2017-12-29T12:06:56.852Z,4.73
2017-12-29T12:09:23.785Z,4.17
2017-12-29T12:11:50.596Z,4.60
2017-12-29T12:14:17.853Z,4.53
2017-12-29T12:16:45.079Z,3.90
2017-12-29T12:19:11.906Z,4.23
2017-12-29T12:21:38.826Z,3.73
2017-12-29T12:24:05.871Z,4.37
2017-12-29T12:26:32.708Z,3.60
2017-12-29T12:28:59.560Z,4.47
2017-12-29T12:31:26.498Z,3.90
2017-12-29T12:33:53.400Z,4.47
2017-12-29T12:36:20.214Z,4.17
2017-12-29T12:38:47.135Z,3.93
2017-12-29T12:41:13.977Z,3.67
2017-12-29T12:43:40.948Z,4.27
2017-12-29T12:46:07.981Z,6.90
2017-12-29T12:48:34.821Z,4.67
2017-12-29T12:51:01.767Z,4.60
2017-12-29T12:53:28.719Z,5.47
2017-12-29T12:55:55.662Z,4.50
2017-12-29T12:58:22.522Z,4.90
2017-12-29T13:00:49.378Z,4.20
2017-12-29T13:03:16.218Z,4.10
2017-12-29T13:05:43.246Z,4.50
2017-12-29T13:08:10.080Z,4.13
2017-12-29T13:10:36.934Z,4.80
2017-12-29T13:13:03.774Z,4.50
2017-12-29T13:15:30.719Z,3.87
2017-12-29T13:17:57.671Z,4.77
2017-12-29T13:20:24.528Z,4.60
2017-12-29T13:22:51.454Z,5.00
2017-12-29T13:25:18.408Z,5.20
2017-12-29T13:27:45.230Z,4.90
2017-12-29T13:30:12.094Z,4.30
2017-12-29T13:32:39.040Z,4.10
2017-12-29T13:35:05.973Z,4.60
2017-12-29T13:37:32.827Z,4.43
2017-12-29T13:39:59.778Z,4.10
2017-12-29T13:42:26.623Z,4.70
2017-12-29T13:44:53.468Z,3.63
2017-12-29T13:47:20.301Z,3.60
2017-12-29T13:49:47.144Z,3.27
2017-12-29T13:52:14.001Z,3.60
2017-12-29T13:54:40.961Z,3.60
2017-12-29T13:57:07.798Z,3.80
2017-12-29T13:59:34.734Z,2.93
2017-12-29T14:02:01.679Z,4.10
2017-12-29T14:04:28.514Z,3.10
2017-12-29T14:06:55.466Z,2.93
2017-12-29T14:09:22.315Z,3.13
2017-12-29T14:11:49.159Z,3.67
2017-12-29T14:14:16.021Z,2.60
2017-12-29T14:16:42.949Z,2.70
2017-12-29T14:19:09.901Z,2.87
2017-12-29T14:21:36.838Z,3.30
2017-12-29T14:24:04.634Z,2.77
2017-12-29T14:26:31.484Z,2.90
2017-12-29T14:28:58.325Z,2.60
2017-12-29T14:31:25.330Z,2.93
2017-12-29T14:33:52.239Z,2.50
2017-12-29T14:36:19.133Z,3.20
2017-12-29T14:38:46.073Z,2.80
2017-12-29T14:41:12.908Z,3.67
2017-12-29T14:43:39.822Z,3.10
2017-12-29T14:46:06.715Z,3.57
2017-12-29T14:48:33.555Z,3.07
2017-12-29T14:51:00.398Z,3.23
2017-12-29T14:53:27.241Z,2.90
2017-12-29T14:55:54.088Z,2.97
2017-12-29T14:58:20.921Z,3.03
2017-12-29T15:00:47.778Z,3.10
2017-12-29T15:03:14.605Z,3.07
2017-12-29T15:05:41.465Z,3.40
2017-12-29T15:08:08.310Z,3.77
2017-12-29T15:10:35.181Z,4.07
2017-12-29T15:13:02.011Z,4.30
2017-12-29T15:15:28.838Z,3.50
2017-12-29T15:17:55.678Z,3.70
2017-12-29T15:20:22.618Z,3.43
2017-12-29T15:22:49.470Z,4.10
2017-12-29T15:25:16.338Z,4.00
2017-12-29T15:27:43.270Z,3.77
2017-12-29T15:30:10.086Z,3.70
2017-12-29T15:32:36.962Z,2.93
2017-12-29T15:35:03.903Z,4.37
2017-12-29T15:37:30.754Z,3.67
2017-12-29T15:39:57.598Z,3.80
2017-12-29T15:42:24.542Z,3.50
2017-12-29T15:44:51.382Z,3.90
2017-12-29T15:47:18.209Z,3.60
2017-12-29T15:49:45.050Z,4.37
2017-12-29T15:52:12.006Z,3.40
2017-12-29T15:54:38.862Z,3.10
2017-12-29T15:57:05.682Z,3.53
2017-12-29T15:59:32.520Z,3.80
2017-12-29T16:02:00.262Z,3.20
2017-12-29T16:04:27.150Z,4.40
2017-12-29T16:06:54.676Z,3.73
2017-12-29T16:09:22.074Z,4.00
2017-12-29T16:11:48.894Z,4.80
2017-12-29T16:14:16.170Z,4.20
2017-12-29T16:16:43.106Z,4.80
2017-12-29T16:19:09.943Z,5.20
2017-12-29T16:21:36.804Z,4.70
2017-12-29T16:24:03.666Z,4.80
2017-12-29T16:26:30.520Z,4.63
2017-12-29T16:28:57.450Z,5.40
2017-12-29T16:31:24.279Z,4.37
2017-12-29T16:33:51.345Z,5.13
2017-12-29T16:36:18.182Z,4.67
2017-12-29T16:38:45.119Z,4.57
2017-12-29T16:41:12.009Z,4.50
2017-12-29T16:43:38.837Z,4.70
2017-12-29T16:46:05.701Z,4.13
2017-12-29T16:48:32.595Z,4.47
2017-12-29T16:50:59.582Z,4.03
2017-12-29T16:53:26.495Z,3.80
2017-12-29T16:55:53.317Z,4.00
2017-12-29T16:58:20.286Z,3.57
2017-12-29T17:00:47.179Z,4.63
2017-12-29T17:03:14.088Z,4.30
2017-12-29T17:05:41.022Z,4.10
2017-12-29T17:08:07.871Z,3.93
2017-12-29T17:10:34.699Z,3.90
2017-12-29T17:13:01.658Z,3.57
2017-12-29T17:15:28.500Z,4.60
2017-12-29T17:17:55.367Z,2.90
2017-12-29T17:20:22.290Z,3.10
2017-12-29T17:22:49.238Z,2.97
2017-12-29T17:25:16.090Z,2.70
2017-12-29T17:27:42.922Z,3.37
2017-12-29T17:30:09.872Z,3.80
2017-12-29T17:32:36.720Z,3.17
2017-12-29T17:35:03.656Z,2.37
2017-12-29T17:37:30.504Z,2.67
2017-12-29T17:39:57.447Z,2.83
2017-12-29T17:42:24.294Z,2.57
2017-12-29T17:44:51.129Z,3.30
2017-12-29T17:47:18.001Z,3.37
2017-12-29T17:49:44.855Z,3.53
2017-12-29T17:52:11.770Z,3.33
2017-12-29T17:54:38.714Z,3.50
2017-12-29T17:57:05.719Z,2.70
2017-12-29T17:59:32.618Z,3.70
2017-12-29T18:01:59.533Z,2.73
2017-12-29T18:04:26.763Z,3.93
2017-12-29T18:06:53.646Z,2.93
2017-12-29T18:09:20.505Z,2.70
2017-12-29T18:11:47.449Z,3.10
2017-12-29T18:14:14.275Z,3.70
2017-12-29T18:16:41.186Z,3.47
2017-12-29T18:19:08.025Z,3.73
2017-12-29T18:21:34.853Z,3.80
2017-12-29T18:24:01.770Z,3.83
2017-12-29T18:26:28.620Z,3.40
2017-12-29T18:28:55.459Z,3.87
2017-12-29T18:31:22.301Z,4.40
2017-12-29T18:33:49.146Z,4.07
2017-12-29T18:36:15.982Z,3.70
2017-12-29T18:38:42.936Z,3.57
2017-12-29T18:41:09.986Z,4.50
2017-12-29T18:43:36.876Z,4.70
2017-12-29T18:46:03.710Z,7.40
2017-12-29T18:48:30.602Z,6.60
2017-12-29T18:50:57.393Z,5.80
2017-12-29T18:53:24.322Z,6.87
2017-12-29T18:55:51.189Z,8.07
2017-12-29T18:58:18.102Z,5.50
2017-12-29T19:00:44.962Z,6.23
2017-12-29T19:03:11.881Z,7.43
2017-12-29T19:05:38.726Z,6.27
2017-12-29T19:08:05.611Z,6.80
2017-12-29T19:10:32.527Z,8.47
2017-12-29T19:12:59.367Z,8.73
2017-12-29T19:15:26.301Z,8.23
2017-12-29T19:17:53.261Z,7.40
2017-12-29T19:20:20.102Z,8.20
2017-12-29T19:22:47.051Z,8.13
2017-12-29T19:25:13.869Z,9.07
2017-12-29T19:27:40.790Z,9.93
2017-12-29T19:30:07.783Z,8.63
2017-12-29T19:32:34.631Z,8.30
2017-12-29T19:35:01.474Z,9.10
2017-12-29T19:37:28.413Z,8.90
2017-12-29T19:39:55.357Z,8.50
2017-12-29T19:42:22.235Z,8.40
2017-12-29T19:44:49.150Z,8.07
2017-12-29T19:47:15.983Z,9.50
2017-12-29T19:49:42.828Z,8.67
2017-12-29T19:52:09.665Z,8.37
2017-12-29T19:54:36.494Z,7.57
2017-12-29T19:57:03.950Z,7.60
2017-12-29T19:59:30.830Z,8.57
2017-12-29T20:01:57.669Z,8.80
2017-12-29T20:04:24.526Z,8.30
2017-12-29T20:06:51.487Z,8.30
2017-12-29T20:09:18.341Z,8.90
2017-12-29T20:11:45.174Z,8.07
2017-12-29T20:14:12.026Z,8.13
2017-12-29T20:16:38.951Z,8.20
2017-12-29T20:19:05.878Z,8.37
2017-12-29T20:21:32.973Z,9.20
2017-12-29T20:23:59.806Z,7.33
2017-12-29T20:26:26.677Z,7.30
2017-12-29T20:28:53.574Z,8.20
2017-12-29T20:31:20.418Z,7.00
2017-12-29T20:33:47.293Z,7.60
2017-12-29T20:36:14.249Z,7.77
2017-12-29T20:38:41.083Z,9.33
2017-12-29T20:41:08.320Z,8.40
2017-12-29T20:43:35.313Z,8.07
2017-12-29T20:46:02.230Z,8.33
2017-12-29T20:48:29.275Z,7.97
2017-12-29T20:50:56.203Z,7.83
2017-12-29T20:53:23.148Z,9.20
2017-12-29T20:55:49.985Z,9.10
2017-12-29T20:58:16.877Z,9.27
2017-12-29T21:00:43.721Z,8.27
2017-12-29T21:03:10.730Z,8.70
2017-12-29T21:05:37.589Z,9.00
2017-12-29T21:08:04.526Z,9.60
2017-12-29T21:10:31.364Z,8.27
2017-12-29T21:12:58.247Z,8.20
2017-12-29T21:15:25.157Z,9.63
2017-12-29T21:17:52.100Z,9.73
2017-12-29T21:20:19.170Z,10.60
2017-12-29T21:22:46.025Z,8.90
2017-12-29T21:25:13.046Z,8.20
2017-12-29T21:27:39.934Z,9.57
2017-12-29T21:30:06.937Z,10.33
2017-12-29T21:32:33.839Z,9.30
2017-12-29T21:35:00.769Z,10.20
2017-12-29T21:37:27.692Z,9.27
2017-12-29T21:39:54.611Z,10.40
2017-12-29T21:42:21.943Z,9.73
2017-12-29T21:44:48.777Z,11.10
2017-12-29T21:47:15.677Z,9.97
2017-12-29T21:49:42.549Z,10.33
2017-12-29T21:52:09.395Z,10.90
2017-12-29T21:54:36.259Z,11.87
2017-12-29T21:57:03.158Z,10.43
2017-12-29T21:59:30.139Z,12.23
2017-12-29T22:01:57.043Z,11.40
2017-12-29T22:04:24.006Z,10.90
2017-12-29T22:06:51.010Z,12.43
2017-12-29T22:09:18.234Z,10.93
2017-12-29T22:11:45.188Z,12.90
2017-12-29T22:14:12.103Z,13.10
2017-12-29T22:16:39.074Z,12.47
2017-12-29T22:19:05.979Z,13.57
2017-12-29T22:21:32.854Z,13.80
2017-12-29T22:23:59.791Z,17.20
2017-12-29T22:26:26.694Z,14.40
2017-12-29T22:28:53.549Z,13.50
2017-12-29T22:31:20.508Z,15.70
2017-12-29T22:33:47.362Z,14.70
2017-12-29T22:36:14.202Z,13.20
2017-12-29T22:38:41.146Z,15.30
2017-12-29T22:41:08.086Z,14.17
2017-12-29T22:43:34.939Z,13.37
2017-12-29T22:46:01.776Z,12.23
2017-12-29T22:48:28.730Z,12.97
2017-12-29T22:50:55.583Z,13.77
2017-12-29T22:53:22.509Z,12.60
2017-12-29T22:55:49.453Z,14.13
2017-12-29T22:58:16.346Z,12.17
2017-12-29T23:00:43.258Z,11.97
2017-12-29T23:03:10.193Z,12.80
2017-12-29T23:05:37.039Z,11.80
2017-12-29T23:08:03.889Z,9.83
2017-12-29T23:10:30.728Z,12.40
2017-12-29T23:12:57.563Z,10.30
2017-12-29T23:15:24.418Z,10.87
2017-12-29T23:17:51.358Z,11.47
2017-12-29T23:20:18.201Z,13.07
2017-12-29T23:22:45.055Z,12.90
2017-12-29T23:25:11.893Z,11.87
2017-12-29T23:27:38.842Z,11.60
2017-12-29T23:30:05.782Z,11.93
2017-12-29T23:32:32.635Z,13.77
2017-12-29T23:34:59.489Z,12.80
2017-12-29T23:37:26.427Z,12.50
2017-12-29T23:39:53.274Z,15.87
2017-12-29T23:42:20.126Z,15.13
2017-12-29T23:44:47.567Z,13.03
2017-12-29T23:47:14.519Z,14.00
2017-12-29T23:49:41.353Z,16.00
2017-12-29T23:52:08.311Z,15.73
2017-12-29T23:54:35.250Z,15.90
2017-12-29T23:57:02.086Z,17.40
2017-12-29T23:59:28.938Z,15.20
